sensor_id;sensor_type;location;lat;lon;timestamp;P1;durP1;ratioP1;P2;durP2;ratioP2
15990;SDS011;8100;50.994;4.538;2023-03-23T00:01:02;4.60;;;2.30;;
15990;SDS011;8100;50.994;4.538;2023-03-23T00:03:53;5.20;;;2.10;;
15990;SDS011;8100;50.994;4.538;2023-03-23T00:06:42;5.32;;;2.38;;
15990;SDS011;8100;50.994;4.538;2023-03-23T00:09:30;3.90;;;2.50;;
15990;SDS011;8100;50.994;4.538;2023-03-23T00:12:20;4.68;;;2.70;;
15990;SDS011;8100;50.994;4.538;2023-03-23T00:15:18;4.72;;;2.70;;
15990;SDS011;8100;50.994;4.538;2023-03-23T00:18:10;4.75;;;2.92;;
15990;SDS011;8100;50.994;4.538;2023-03-23T00:21:08;5.32;;;3.00;;
15990;SDS011;8100;50.994;4.538;2023-03-23T00:23:55;4.53;;;2.90;;
15990;SDS011;8100;50.994;4.538;2023-03-23T00:26:45;5.32;;;2.72;;
15990;SDS011;8100;50.994;4.538;2023-03-23T00:29:34;5.07;;;2.72;;
15990;SDS011;8100;50.994;4.538;2023-03-23T00:32:22;5.45;;;2.83;;
15990;SDS011;8100;50.994;4.538;2023-03-23T00:35:14;5.68;;;2.95;;
15990;SDS011;8100;50.994;4.538;2023-03-23T00:38:02;4.60;;;2.42;;
15990;SDS011;8100;50.994;4.538;2023-03-23T00:40:50;5.75;;;2.63;;
15990;SDS011;8100;50.994;4.538;2023-03-23T00:43:37;3.75;;;2.58;;
15990;SDS011;8100;50.994;4.538;2023-03-23T00:46:24;4.50;;;2.40;;
15990;SDS011;8100;50.994;4.538;2023-03-23T00:49:13;6.15;;;2.78;;
15990;SDS011;8100;50.994;4.538;2023-03-23T00:52:03;3.92;;;2.40;;
15990;SDS011;8100;50.994;4.538;2023-03-23T00:54:52;4.72;;;2.38;;
15990;SDS011;8100;50.994;4.538;2023-03-23T00:57:40;3.90;;;2.40;;
15990;SDS011;8100;50.994;4.538;2023-03-23T01:00:27;3.60;;;2.38;;
15990;SDS011;8100;50.994;4.538;2023-03-23T01:03:14;3.92;;;2.50;;
15990;SDS011;8100;50.994;4.538;2023-03-23T01:06:04;4.20;;;2.70;;
15990;SDS011;8100;50.994;4.538;2023-03-23T01:08:53;5.90;;;2.40;;
15990;SDS011;8100;50.994;4.538;2023-03-23T01:11:43;3.53;;;2.17;;
15990;SDS011;8100;50.994;4.538;2023-03-23T01:14:31;4.55;;;2.25;;
15990;SDS011;8100;50.994;4.538;2023-03-23T01:17:18;3.97;;;2.13;;
15990;SDS011;8100;50.994;4.538;2023-03-23T01:20:06;4.40;;;2.40;;
15990;SDS011;8100;50.994;4.538;2023-03-23T01:22:54;3.20;;;1.92;;
15990;SDS011;8100;50.994;4.538;2023-03-23T01:25:45;4.13;;;2.40;;
15990;SDS011;8100;50.994;4.538;2023-03-23T01:28:34;6.05;;;2.50;;
15990;SDS011;8100;50.994;4.538;2023-03-23T01:31:23;4.22;;;2.28;;
15990;SDS011;8100;50.994;4.538;2023-03-23T01:34:11;3.50;;;2.70;;
15990;SDS011;8100;50.994;4.538;2023-03-23T01:36:59;4.50;;;2.40;;
15990;SDS011;8100;50.994;4.538;2023-03-23T01:39:46;5.40;;;2.80;;
15990;SDS011;8100;50.994;4.538;2023-03-23T01:42:34;4.05;;;2.22;;
15990;SDS011;8100;50.994;4.538;2023-03-23T01:45:27;4.05;;;2.72;;
15990;SDS011;8100;50.994;4.538;2023-03-23T01:48:17;4.30;;;2.58;;
15990;SDS011;8100;50.994;4.538;2023-03-23T01:51:09;3.30;;;2.33;;
15990;SDS011;8100;50.994;4.538;2023-03-23T01:54:00;2.60;;;2.10;;
15990;SDS011;8100;50.994;4.538;2023-03-23T01:56:50;4.45;;;2.70;;
15990;SDS011;8100;50.994;4.538;2023-03-23T01:59:40;3.22;;;2.40;;
15990;SDS011;8100;50.994;4.538;2023-03-23T02:02:31;5.43;;;2.47;;
15990;SDS011;8100;50.994;4.538;2023-03-23T02:05:23;3.58;;;2.25;;
15990;SDS011;8100;50.994;4.538;2023-03-23T02:08:14;3.45;;;2.47;;
15990;SDS011;8100;50.994;4.538;2023-03-23T02:11:10;5.63;;;2.60;;
15990;SDS011;8100;50.994;4.538;2023-03-23T02:14:00;3.35;;;2.25;;
15990;SDS011;8100;50.994;4.538;2023-03-23T02:16:50;3.95;;;2.38;;
15990;SDS011;8100;50.994;4.538;2023-03-23T02:19:50;3.30;;;2.28;;
15990;SDS011;8100;50.994;4.538;2023-03-23T02:22:58;4.05;;;2.30;;
15990;SDS011;8100;50.994;4.538;2023-03-23T02:26:08;3.53;;;1.95;;
15990;SDS011;8100;50.994;4.538;2023-03-23T02:29:12;2.50;;;1.92;;
15990;SDS011;8100;50.994;4.538;2023-03-23T02:35:35;4.70;;;2.08;;
15990;SDS011;8100;50.994;4.538;2023-03-23T02:38:26;6.13;;;1.80;;
15990;SDS011;8100;50.994;4.538;2023-03-23T02:41:19;4.88;;;1.88;;
15990;SDS011;8100;50.994;4.538;2023-03-23T02:44:10;3.78;;;1.63;;
15990;SDS011;8100;50.994;4.538;2023-03-23T02:46:59;3.08;;;1.80;;
15990;SDS011;8100;50.994;4.538;2023-03-23T02:49:49;3.17;;;1.38;;
15990;SDS011;8100;50.994;4.538;2023-03-23T02:52:41;3.92;;;1.35;;
15990;SDS011;8100;50.994;4.538;2023-03-23T02:55:29;2.35;;;1.27;;
15990;SDS011;8100;50.994;4.538;2023-03-23T02:58:19;3.95;;;1.30;;
15990;SDS011;8100;50.994;4.538;2023-03-23T03:01:14;3.60;;;1.25;;
15990;SDS011;8100;50.994;4.538;2023-03-23T03:04:19;2.75;;;1.20;;
15990;SDS011;8100;50.994;4.538;2023-03-23T03:10:24;3.20;;;1.00;;
15990;SDS011;8100;50.994;4.538;2023-03-23T03:13:17;5.70;;;1.10;;
15990;SDS011;8100;50.994;4.538;2023-03-23T03:16:15;2.97;;;1.08;;
15990;SDS011;8100;50.994;4.538;2023-03-23T03:19:11;4.03;;;1.00;;
15990;SDS011;8100;50.994;4.538;2023-03-23T03:22:04;2.63;;;1.10;;
15990;SDS011;8100;50.994;4.538;2023-03-23T03:24:53;4.40;;;1.10;;
15990;SDS011;8100;50.994;4.538;2023-03-23T03:27:43;2.78;;;0.95;;
15990;SDS011;8100;50.994;4.538;2023-03-23T03:30:35;2.97;;;1.00;;
15990;SDS011;8100;50.994;4.538;2023-03-23T03:33:25;2.28;;;0.93;;
15990;SDS011;8100;50.994;4.538;2023-03-23T03:36:17;1.75;;;0.90;;
15990;SDS011;8100;50.994;4.538;2023-03-23T03:39:07;1.98;;;0.82;;
15990;SDS011;8100;50.994;4.538;2023-03-23T03:41:55;2.25;;;1.00;;
15990;SDS011;8100;50.994;4.538;2023-03-23T03:44:44;2.78;;;0.98;;
15990;SDS011;8100;50.994;4.538;2023-03-23T03:47:31;2.88;;;0.88;;
15990;SDS011;8100;50.994;4.538;2023-03-23T03:50:18;2.50;;;1.00;;
15990;SDS011;8100;50.994;4.538;2023-03-23T03:53:06;4.55;;;0.90;;
15990;SDS011;8100;50.994;4.538;2023-03-23T03:55:53;2.13;;;0.63;;
15990;SDS011;8100;50.994;4.538;2023-03-23T03:58:45;6.07;;;1.20;;
15990;SDS011;8100;50.994;4.538;2023-03-23T04:01:37;7.07;;;1.02;;
15990;SDS011;8100;50.994;4.538;2023-03-23T04:04:25;4.50;;;0.90;;
15990;SDS011;8100;50.994;4.538;2023-03-23T04:07:12;7.70;;;1.20;;
15990;SDS011;8100;50.994;4.538;2023-03-23T04:10:01;4.25;;;0.90;;
15990;SDS011;8100;50.994;4.538;2023-03-23T04:12:50;4.50;;;1.23;;
15990;SDS011;8100;50.994;4.538;2023-03-23T04:15:38;4.72;;;1.05;;
15990;SDS011;8100;50.994;4.538;2023-03-23T04:18:27;9.10;;;1.00;;
15990;SDS011;8100;50.994;4.538;2023-03-23T04:21:26;3.35;;;1.10;;
15990;SDS011;8100;50.994;4.538;2023-03-23T04:24:15;5.43;;;1.05;;
15990;SDS011;8100;50.994;4.538;2023-03-23T04:27:06;5.95;;;1.25;;
15990;SDS011;8100;50.994;4.538;2023-03-23T04:29:54;7.20;;;1.15;;
15990;SDS011;8100;50.994;4.538;2023-03-23T04:32:43;4.18;;;1.23;;
15990;SDS011;8100;50.994;4.538;2023-03-23T04:35:31;4.13;;;1.25;;
15990;SDS011;8100;50.994;4.538;2023-03-23T04:38:20;5.47;;;1.38;;
15990;SDS011;8100;50.994;4.538;2023-03-23T04:41:09;5.32;;;0.90;;
15990;SDS011;8100;50.994;4.538;2023-03-23T04:43:57;2.90;;;0.85;;
15990;SDS011;8100;50.994;4.538;2023-03-23T04:46:48;4.25;;;1.20;;
15990;SDS011;8100;50.994;4.538;2023-03-23T04:49:35;4.72;;;1.10;;
15990;SDS011;8100;50.994;4.538;2023-03-23T04:52:25;3.72;;;1.10;;
15990;SDS011;8100;50.994;4.538;2023-03-23T04:55:13;6.22;;;1.13;;
15990;SDS011;8100;50.994;4.538;2023-03-23T04:58:00;3.95;;;1.02;;
15990;SDS011;8100;50.994;4.538;2023-03-23T05:00:48;5.75;;;1.40;;
15990;SDS011;8100;50.994;4.538;2023-03-23T05:03:35;5.60;;;1.27;;
15990;SDS011;8100;50.994;4.538;2023-03-23T05:06:24;4.15;;;1.10;;
15990;SDS011;8100;50.994;4.538;2023-03-23T05:09:12;5.85;;;1.25;;
15990;SDS011;8100;50.994;4.538;2023-03-23T05:12:03;3.92;;;0.93;;
15990;SDS011;8100;50.994;4.538;2023-03-23T05:14:51;3.45;;;0.95;;
15990;SDS011;8100;50.994;4.538;2023-03-23T05:17:38;6.32;;;1.13;;
15990;SDS011;8100;50.994;4.538;2023-03-23T05:20:25;3.72;;;1.00;;
15990;SDS011;8100;50.994;4.538;2023-03-23T05:23:13;3.25;;;0.90;;
15990;SDS011;8100;50.994;4.538;2023-03-23T05:26:02;2.97;;;0.88;;
15990;SDS011;8100;50.994;4.538;2023-03-23T05:28:50;4.85;;;1.30;;
15990;SDS011;8100;50.994;4.538;2023-03-23T05:31:38;4.22;;;1.00;;
15990;SDS011;8100;50.994;4.538;2023-03-23T05:34:26;7.90;;;1.05;;
15990;SDS011;8100;50.994;4.538;2023-03-23T05:37:14;3.92;;;1.10;;
15990;SDS011;8100;50.994;4.538;2023-03-23T05:40:01;2.95;;;0.90;;
15990;SDS011;8100;50.994;4.538;2023-03-23T05:42:53;4.95;;;1.08;;
15990;SDS011;8100;50.994;4.538;2023-03-23T05:45:41;4.80;;;1.05;;
15990;SDS011;8100;50.994;4.538;2023-03-23T05:48:28;4.10;;;0.80;;
15990;SDS011;8100;50.994;4.538;2023-03-23T05:51:16;7.75;;;1.17;;
15990;SDS011;8100;50.994;4.538;2023-03-23T05:54:04;6.13;;;1.23;;
15990;SDS011;8100;50.994;4.538;2023-03-23T05:56:51;4.60;;;1.15;;
15990;SDS011;8100;50.994;4.538;2023-03-23T05:59:40;4.53;;;1.13;;
15990;SDS011;8100;50.994;4.538;2023-03-23T06:02:27;7.40;;;1.30;;
15990;SDS011;8100;50.994;4.538;2023-03-23T06:05:14;7.43;;;1.38;;
15990;SDS011;8100;50.994;4.538;2023-03-23T06:08:02;4.28;;;1.10;;
15990;SDS011;8100;50.994;4.538;2023-03-23T06:10:50;6.43;;;1.17;;
15990;SDS011;8100;50.994;4.538;2023-03-23T06:13:37;3.75;;;0.98;;
15990;SDS011;8100;50.994;4.538;2023-03-23T06:16:26;4.38;;;1.10;;
15990;SDS011;8100;50.994;4.538;2023-03-23T06:19:13;6.40;;;1.13;;
15990;SDS011;8100;50.994;4.538;2023-03-23T06:22:01;4.65;;;1.13;;
15990;SDS011;8100;50.994;4.538;2023-03-23T06:24:48;5.65;;;1.08;;
15990;SDS011;8100;50.994;4.538;2023-03-23T06:27:36;2.55;;;0.85;;
15990;SDS011;8100;50.994;4.538;2023-03-23T06:30:23;4.65;;;1.23;;
15990;SDS011;8100;50.994;4.538;2023-03-23T06:33:13;3.58;;;1.20;;
15990;SDS011;8100;50.994;4.538;2023-03-23T06:36:01;5.80;;;1.13;;
15990;SDS011;8100;50.994;4.538;2023-03-23T06:38:49;4.65;;;1.30;;
15990;SDS011;8100;50.994;4.538;2023-03-23T06:41:36;5.35;;;1.17;;
15990;SDS011;8100;50.994;4.538;2023-03-23T06:44:23;4.90;;;1.30;;
15990;SDS011;8100;50.994;4.538;2023-03-23T06:47:10;2.58;;;0.50;;
15990;SDS011;8100;50.994;4.538;2023-03-23T06:49:59;1.25;;;0.30;;
15990;SDS011;8100;50.994;4.538;2023-03-23T06:52:47;0.85;;;0.20;;
15990;SDS011;8100;50.994;4.538;2023-03-23T06:55:36;3.50;;;0.73;;
15990;SDS011;8100;50.994;4.538;2023-03-23T06:58:24;1.80;;;0.47;;
15990;SDS011;8100;50.994;4.538;2023-03-23T07:01:11;3.45;;;0.63;;
15990;SDS011;8100;50.994;4.538;2023-03-23T07:04:00;1.90;;;0.52;;
15990;SDS011;8100;50.994;4.538;2023-03-23T07:06:49;3.10;;;0.50;;
15990;SDS011;8100;50.994;4.538;2023-03-23T07:09:36;0.55;;;0.30;;
15990;SDS011;8100;50.994;4.538;2023-03-23T07:12:23;0.68;;;0.30;;
15990;SDS011;8100;50.994;4.538;2023-03-23T07:15:12;2.42;;;0.50;;
15990;SDS011;8100;50.994;4.538;2023-03-23T07:18:00;2.72;;;0.45;;
15990;SDS011;8100;50.994;4.538;2023-03-23T07:20:48;0.98;;;0.40;;
15990;SDS011;8100;50.994;4.538;2023-03-23T07:23:36;2.17;;;0.50;;
15990;SDS011;8100;50.994;4.538;2023-03-23T07:26:24;1.60;;;0.40;;
15990;SDS011;8100;50.994;4.538;2023-03-23T07:29:11;2.85;;;0.70;;
15990;SDS011;8100;50.994;4.538;2023-03-23T07:31:58;5.10;;;1.00;;
15990;SDS011;8100;50.994;4.538;2023-03-23T07:34:46;3.78;;;0.52;;
15990;SDS011;8100;50.994;4.538;2023-03-23T07:37:33;6.05;;;0.98;;
15990;SDS011;8100;50.994;4.538;2023-03-23T07:40:22;6.20;;;1.10;;
15990;SDS011;8100;50.994;4.538;2023-03-23T07:43:09;11.18;;;1.30;;
15990;SDS011;8100;50.994;4.538;2023-03-23T07:45:57;17.77;;;2.00;;
15990;SDS011;8100;50.994;4.538;2023-03-23T07:48:44;9.13;;;1.30;;
15990;SDS011;8100;50.994;4.538;2023-03-23T07:51:31;8.60;;;1.35;;
15990;SDS011;8100;50.994;4.538;2023-03-23T07:54:19;6.68;;;1.17;;
15990;SDS011;8100;50.994;4.538;2023-03-23T07:57:08;18.73;;;2.22;;
15990;SDS011;8100;50.994;4.538;2023-03-23T07:59:55;3.45;;;0.75;;
15990;SDS011;8100;50.994;4.538;2023-03-23T08:02:43;1.95;;;0.50;;
15990;SDS011;8100;50.994;4.538;2023-03-23T08:05:30;1.98;;;0.45;;
15990;SDS011;8100;50.994;4.538;2023-03-23T08:08:17;1.73;;;0.30;;
15990;SDS011;8100;50.994;4.538;2023-03-23T08:11:05;1.00;;;0.50;;
15990;SDS011;8100;50.994;4.538;2023-03-23T08:13:54;1.77;;;0.73;;
15990;SDS011;8100;50.994;4.538;2023-03-23T08:16:41;1.67;;;0.50;;
15990;SDS011;8100;50.994;4.538;2023-03-23T08:19:29;3.13;;;0.98;;
15990;SDS011;8100;50.994;4.538;2023-03-23T08:22:21;2.83;;;0.80;;
15990;SDS011;8100;50.994;4.538;2023-03-23T08:25:09;5.25;;;0.75;;
15990;SDS011;8100;50.994;4.538;2023-03-23T08:27:58;5.22;;;0.88;;
15990;SDS011;8100;50.994;4.538;2023-03-23T08:30:48;3.15;;;0.88;;
15990;SDS011;8100;50.994;4.538;2023-03-23T08:33:36;2.80;;;0.75;;
15990;SDS011;8100;50.994;4.538;2023-03-23T08:36:23;3.80;;;0.90;;
15990;SDS011;8100;50.994;4.538;2023-03-23T08:39:11;2.95;;;1.02;;
15990;SDS011;8100;50.994;4.538;2023-03-23T08:41:59;3.65;;;0.93;;
15990;SDS011;8100;50.994;4.538;2023-03-23T08:44:47;2.63;;;0.90;;
15990;SDS011;8100;50.994;4.538;2023-03-23T08:47:36;4.13;;;0.70;;
15990;SDS011;8100;50.994;4.538;2023-03-23T08:50:25;5.05;;;1.10;;
15990;SDS011;8100;50.994;4.538;2023-03-23T08:53:16;2.55;;;0.85;;
15990;SDS011;8100;50.994;4.538;2023-03-23T08:56:04;2.95;;;0.80;;
15990;SDS011;8100;50.994;4.538;2023-03-23T08:58:52;2.08;;;0.80;;
15990;SDS011;8100;50.994;4.538;2023-03-23T09:01:40;2.45;;;0.93;;
15990;SDS011;8100;50.994;4.538;2023-03-23T09:04:28;4.05;;;0.85;;
15990;SDS011;8100;50.994;4.538;2023-03-23T09:07:16;2.92;;;0.60;;
15990;SDS011;8100;50.994;4.538;2023-03-23T09:10:03;3.47;;;0.90;;
15990;SDS011;8100;50.994;4.538;2023-03-23T09:12:51;2.20;;;0.70;;
15990;SDS011;8100;50.994;4.538;2023-03-23T09:15:40;2.75;;;0.80;;
15990;SDS011;8100;50.994;4.538;2023-03-23T09:18:27;2.85;;;0.70;;
15990;SDS011;8100;50.994;4.538;2023-03-23T09:21:16;4.05;;;0.98;;
15990;SDS011;8100;50.994;4.538;2023-03-23T09:24:03;2.90;;;0.82;;
15990;SDS011;8100;50.994;4.538;2023-03-23T09:26:51;5.88;;;0.70;;
15990;SDS011;8100;50.994;4.538;2023-03-23T09:29:39;5.20;;;0.90;;
15990;SDS011;8100;50.994;4.538;2023-03-23T09:32:26;3.33;;;0.90;;
15990;SDS011;8100;50.994;4.538;2023-03-23T09:35:14;2.80;;;0.82;;
15990;SDS011;8100;50.994;4.538;2023-03-23T09:38:04;3.50;;;1.00;;
15990;SDS011;8100;50.994;4.538;2023-03-23T09:40:53;4.50;;;0.80;;
15990;SDS011;8100;50.994;4.538;2023-03-23T09:43:51;2.58;;;0.70;;
15990;SDS011;8100;50.994;4.538;2023-03-23T09:46:50;4.50;;;0.80;;
15990;SDS011;8100;50.994;4.538;2023-03-23T09:49:45;5.25;;;0.95;;
15990;SDS011;8100;50.994;4.538;2023-03-23T09:52:39;1.70;;;0.68;;
15990;SDS011;8100;50.994;4.538;2023-03-23T09:55:31;2.83;;;0.68;;
15990;SDS011;8100;50.994;4.538;2023-03-23T09:58:21;2.25;;;0.85;;
15990;SDS011;8100;50.994;4.538;2023-03-23T10:01:14;3.42;;;0.90;;
15990;SDS011;8100;50.994;4.538;2023-03-23T10:04:07;2.63;;;1.00;;
15990;SDS011;8100;50.994;4.538;2023-03-23T10:06:59;3.35;;;0.85;;
15990;SDS011;8100;50.994;4.538;2023-03-23T10:09:56;3.17;;;0.80;;
15990;SDS011;8100;50.994;4.538;2023-03-23T10:12:52;3.08;;;0.88;;
15990;SDS011;8100;50.994;4.538;2023-03-23T10:15:45;3.85;;;1.20;;
15990;SDS011;8100;50.994;4.538;2023-03-23T10:18:36;3.55;;;1.00;;
15990;SDS011;8100;50.994;4.538;2023-03-23T10:21:24;3.20;;;1.10;;
15990;SDS011;8100;50.994;4.538;2023-03-23T10:24:16;3.40;;;0.82;;
15990;SDS011;8100;50.994;4.538;2023-03-23T10:27:09;4.10;;;1.15;;
15990;SDS011;8100;50.994;4.538;2023-03-23T10:30:11;4.47;;;0.90;;
15990;SDS011;8100;50.994;4.538;2023-03-23T10:33:04;4.00;;;1.17;;
15990;SDS011;8100;50.994;4.538;2023-03-23T10:35:59;4.78;;;1.20;;
15990;SDS011;8100;50.994;4.538;2023-03-23T10:38:53;7.10;;;1.30;;
15990;SDS011;8100;50.994;4.538;2023-03-23T10:41:44;4.88;;;1.23;;
15990;SDS011;8100;50.994;4.538;2023-03-23T10:44:32;2.22;;;1.10;;
15990;SDS011;8100;50.994;4.538;2023-03-23T10:47:22;1.38;;;0.93;;
15990;SDS011;8100;50.994;4.538;2023-03-23T10:50:11;1.80;;;1.00;;
15990;SDS011;8100;50.994;4.538;2023-03-23T10:53:03;3.75;;;1.08;;
15990;SDS011;8100;50.994;4.538;2023-03-23T10:56:00;3.67;;;1.50;;
15990;SDS011;8100;50.994;4.538;2023-03-23T10:58:49;5.00;;;1.30;;
15990;SDS011;8100;50.994;4.538;2023-03-23T11:01:37;4.30;;;1.55;;
15990;SDS011;8100;50.994;4.538;2023-03-23T11:04:25;4.10;;;1.23;;
15990;SDS011;8100;50.994;4.538;2023-03-23T11:07:17;5.50;;;1.52;;
15990;SDS011;8100;50.994;4.538;2023-03-23T11:10:16;5.38;;;1.52;;
15990;SDS011;8100;50.994;4.538;2023-03-23T11:13:10;3.08;;;1.08;;
15990;SDS011;8100;50.994;4.538;2023-03-23T11:16:00;6.45;;;1.35;;
15990;SDS011;8100;50.994;4.538;2023-03-23T11:18:47;8.60;;;1.58;;
15990;SDS011;8100;50.994;4.538;2023-03-23T11:21:36;3.22;;;1.38;;
15990;SDS011;8100;50.994;4.538;2023-03-23T11:24:24;9.70;;;2.00;;
15990;SDS011;8100;50.994;4.538;2023-03-23T11:27:13;6.50;;;1.88;;
15990;SDS011;8100;50.994;4.538;2023-03-23T11:30:08;6.70;;;1.80;;
15990;SDS011;8100;50.994;4.538;2023-03-23T11:32:58;5.32;;;1.58;;
15990;SDS011;8100;50.994;4.538;2023-03-23T11:35:48;6.82;;;1.50;;
15990;SDS011;8100;50.994;4.538;2023-03-23T11:38:40;9.02;;;1.52;;
15990;SDS011;8100;50.994;4.538;2023-03-23T11:41:31;6.60;;;1.40;;
15990;SDS011;8100;50.994;4.538;2023-03-23T11:44:20;8.90;;;2.50;;
15990;SDS011;8100;50.994;4.538;2023-03-23T11:47:13;29.25;;;8.30;;
15990;SDS011;8100;50.994;4.538;2023-03-23T11:50:08;7.10;;;1.67;;
15990;SDS011;8100;50.994;4.538;2023-03-23T11:53:02;6.93;;;1.60;;
15990;SDS011;8100;50.994;4.538;2023-03-23T11:59:10;17.60;;;2.50;;
15990;SDS011;8100;50.994;4.538;2023-03-23T12:02:06;8.32;;;1.85;;
15990;SDS011;8100;50.994;4.538;2023-03-23T12:05:27;11.23;;;2.00;;
15990;SDS011;8100;50.994;4.538;2023-03-23T12:08:25;6.45;;;1.50;;
15990;SDS011;8100;50.994;4.538;2023-03-23T12:11:23;4.85;;;1.40;;
15990;SDS011;8100;50.994;4.538;2023-03-23T12:14:19;5.18;;;1.50;;
15990;SDS011;8100;50.994;4.538;2023-03-23T12:17:15;12.23;;;1.73;;
15990;SDS011;8100;50.994;4.538;2023-03-23T12:20:13;6.95;;;1.50;;
15990;SDS011;8100;50.994;4.538;2023-03-23T12:23:11;6.03;;;1.40;;
15990;SDS011;8100;50.994;4.538;2023-03-23T12:26:10;8.45;;;1.38;;
15990;SDS011;8100;50.994;4.538;2023-03-23T12:29:20;4.43;;;1.27;;
15990;SDS011;8100;50.994;4.538;2023-03-23T12:32:29;9.02;;;1.92;;
15990;SDS011;8100;50.994;4.538;2023-03-23T12:35:38;4.95;;;1.27;;
15990;SDS011;8100;50.994;4.538;2023-03-23T12:41:50;5.97;;;1.60;;
15990;SDS011;8100;50.994;4.538;2023-03-23T12:44:46;5.50;;;1.38;;
15990;SDS011;8100;50.994;4.538;2023-03-23T12:47:37;5.43;;;1.33;;
15990;SDS011;8100;50.994;4.538;2023-03-23T12:50:30;3.40;;;1.33;;
15990;SDS011;8100;50.994;4.538;2023-03-23T12:53:22;3.33;;;1.10;;
15990;SDS011;8100;50.994;4.538;2023-03-23T12:56:14;9.20;;;1.63;;
15990;SDS011;8100;50.994;4.538;2023-03-23T12:59:06;5.85;;;1.42;;
15990;SDS011;8100;50.994;4.538;2023-03-23T13:02:01;5.22;;;1.25;;
15990;SDS011;8100;50.994;4.538;2023-03-23T13:04:57;4.68;;;1.35;;
15990;SDS011;8100;50.994;4.538;2023-03-23T13:07:51;7.07;;;1.60;;
15990;SDS011;8100;50.994;4.538;2023-03-23T13:10:42;11.00;;;1.45;;
15990;SDS011;8100;50.994;4.538;2023-03-23T13:13:43;5.10;;;1.23;;
15990;SDS011;8100;50.994;4.538;2023-03-23T13:16:38;6.45;;;1.52;;
15990;SDS011;8100;50.994;4.538;2023-03-23T13:19:35;12.43;;;2.17;;
15990;SDS011;8100;50.994;4.538;2023-03-23T13:22:33;4.50;;;1.70;;
15990;SDS011;8100;50.994;4.538;2023-03-23T13:25:29;6.57;;;1.70;;
15990;SDS011;8100;50.994;4.538;2023-03-23T13:28:29;3.88;;;1.38;;
15990;SDS011;8100;50.994;4.538;2023-03-23T13:31:20;6.93;;;1.50;;
15990;SDS011;8100;50.994;4.538;2023-03-23T13:34:12;5.65;;;1.73;;
15990;SDS011;8100;50.994;4.538;2023-03-23T13:37:05;8.15;;;1.55;;
15990;SDS011;8100;50.994;4.538;2023-03-23T13:40:11;9.07;;;2.00;;
15990;SDS011;8100;50.994;4.538;2023-03-23T13:43:07;7.53;;;1.60;;
15990;SDS011;8100;50.994;4.538;2023-03-23T13:46:05;8.45;;;1.70;;
15990;SDS011;8100;50.994;4.538;2023-03-23T13:49:15;5.63;;;1.38;;
15990;SDS011;8100;50.994;4.538;2023-03-23T13:52:16;10.05;;;1.95;;
15990;SDS011;8100;50.994;4.538;2023-03-23T13:55:19;5.50;;;1.60;;
15990;SDS011;8100;50.994;4.538;2023-03-23T13:58:22;10.18;;;1.83;;
15990;SDS011;8100;50.994;4.538;2023-03-23T14:01:12;6.57;;;1.60;;
15990;SDS011;8100;50.994;4.538;2023-03-23T14:04:04;5.05;;;1.80;;
15990;SDS011;8100;50.994;4.538;2023-03-23T14:06:52;6.60;;;1.60;;
15990;SDS011;8100;50.994;4.538;2023-03-23T14:09:42;5.25;;;1.33;;
15990;SDS011;8100;50.994;4.538;2023-03-23T14:12:32;7.60;;;2.28;;
15990;SDS011;8100;50.994;4.538;2023-03-23T14:15:19;7.00;;;1.35;;
15990;SDS011;8100;50.994;4.538;2023-03-23T14:18:11;3.67;;;1.23;;
15990;SDS011;8100;50.994;4.538;2023-03-23T14:21:01;5.53;;;1.42;;
15990;SDS011;8100;50.994;4.538;2023-03-23T14:23:50;6.93;;;1.73;;
15990;SDS011;8100;50.994;4.538;2023-03-23T14:26:41;10.93;;;1.77;;
15990;SDS011;8100;50.994;4.538;2023-03-23T14:29:30;8.63;;;1.15;;
15990;SDS011;8100;50.994;4.538;2023-03-23T14:32:18;7.03;;;1.40;;
15990;SDS011;8100;50.994;4.538;2023-03-23T14:35:13;3.47;;;1.10;;
15990;SDS011;8100;50.994;4.538;2023-03-23T14:38:05;6.13;;;1.50;;
15990;SDS011;8100;50.994;4.538;2023-03-23T14:41:02;7.78;;;1.30;;
15990;SDS011;8100;50.994;4.538;2023-03-23T14:43:52;5.25;;;1.40;;
15990;SDS011;8100;50.994;4.538;2023-03-23T14:46:40;9.25;;;1.50;;
15990;SDS011;8100;50.994;4.538;2023-03-23T14:49:30;4.45;;;1.20;;
15990;SDS011;8100;50.994;4.538;2023-03-23T14:52:21;6.82;;;1.67;;
15990;SDS011;8100;50.994;4.538;2023-03-23T14:55:11;7.53;;;1.77;;
15990;SDS011;8100;50.994;4.538;2023-03-23T14:58:06;7.60;;;1.63;;
15990;SDS011;8100;50.994;4.538;2023-03-23T15:00:58;8.32;;;1.90;;
15990;SDS011;8100;50.994;4.538;2023-03-23T15:03:49;5.47;;;1.60;;
15990;SDS011;8100;50.994;4.538;2023-03-23T15:06:40;7.90;;;1.38;;
15990;SDS011;8100;50.994;4.538;2023-03-23T15:09:30;5.53;;;1.50;;
15990;SDS011;8100;50.994;4.538;2023-03-23T15:12:20;10.55;;;1.20;;
15990;SDS011;8100;50.994;4.538;2023-03-23T15:15:13;5.13;;;1.30;;
15990;SDS011;8100;50.994;4.538;2023-03-23T15:18:17;7.68;;;1.55;;
15990;SDS011;8100;50.994;4.538;2023-03-23T15:21:20;3.42;;;1.30;;
15990;SDS011;8100;50.994;4.538;2023-03-23T15:24:21;6.20;;;1.42;;
15990;SDS011;8100;50.994;4.538;2023-03-23T15:27:14;7.35;;;1.40;;
15990;SDS011;8100;50.994;4.538;2023-03-23T15:30:11;6.97;;;1.65;;
15990;SDS011;8100;50.994;4.538;2023-03-23T15:33:01;6.88;;;1.30;;
15990;SDS011;8100;50.994;4.538;2023-03-23T15:35:52;4.45;;;1.25;;
15990;SDS011;8100;50.994;4.538;2023-03-23T15:38:42;4.60;;;1.48;;
15990;SDS011;8100;50.994;4.538;2023-03-23T15:41:31;7.10;;;1.55;;
15990;SDS011;8100;50.994;4.538;2023-03-23T15:44:26;9.13;;;2.40;;
15990;SDS011;8100;50.994;4.538;2023-03-23T15:47:16;9.38;;;2.15;;
15990;SDS011;8100;50.994;4.538;2023-03-23T15:50:08;6.22;;;2.20;;
15990;SDS011;8100;50.994;4.538;2023-03-23T15:53:04;9.05;;;2.65;;
15990;SDS011;8100;50.994;4.538;2023-03-23T15:56:09;6.47;;;2.15;;
15990;SDS011;8100;50.994;4.538;2023-03-23T15:58:59;7.15;;;2.13;;
15990;SDS011;8100;50.994;4.538;2023-03-23T16:01:46;8.45;;;1.83;;
15990;SDS011;8100;50.994;4.538;2023-03-23T16:04:34;6.45;;;1.67;;
15990;SDS011;8100;50.994;4.538;2023-03-23T16:07:22;6.95;;;1.70;;
15990;SDS011;8100;50.994;4.538;2023-03-23T16:10:15;9.10;;;2.53;;
15990;SDS011;8100;50.994;4.538;2023-03-23T16:13:03;7.38;;;2.20;;
15990;SDS011;8100;50.994;4.538;2023-03-23T16:15:51;7.97;;;2.38;;
15990;SDS011;8100;50.994;4.538;2023-03-23T16:18:39;6.00;;;2.10;;
15990;SDS011;8100;50.994;4.538;2023-03-23T16:21:26;7.18;;;1.75;;
15990;SDS011;8100;50.994;4.538;2023-03-23T16:24:13;11.18;;;2.00;;
15990;SDS011;8100;50.994;4.538;2023-03-23T16:27:02;7.00;;;2.03;;
15990;SDS011;8100;50.994;4.538;2023-03-23T16:29:49;7.88;;;1.90;;
15990;SDS011;8100;50.994;4.538;2023-03-23T16:32:36;10.38;;;2.40;;
15990;SDS011;8100;50.994;4.538;2023-03-23T16:35:24;8.55;;;2.35;;
15990;SDS011;8100;50.994;4.538;2023-03-23T16:38:12;5.22;;;1.90;;
15990;SDS011;8100;50.994;4.538;2023-03-23T16:41:01;6.47;;;1.90;;
15990;SDS011;8100;50.994;4.538;2023-03-23T16:43:50;9.95;;;1.75;;
15990;SDS011;8100;50.994;4.538;2023-03-23T16:46:37;2.90;;;1.40;;
15990;SDS011;8100;50.994;4.538;2023-03-23T16:49:24;4.70;;;1.20;;
15990;SDS011;8100;50.994;4.538;2023-03-23T16:52:12;5.72;;;1.73;;
15990;SDS011;8100;50.994;4.538;2023-03-23T16:54:59;7.90;;;1.95;;
15990;SDS011;8100;50.994;4.538;2023-03-23T16:57:46;5.78;;;1.70;;
15990;SDS011;8100;50.994;4.538;2023-03-23T17:00:35;6.25;;;1.95;;
15990;SDS011;8100;50.994;4.538;2023-03-23T17:03:25;6.45;;;2.13;;
15990;SDS011;8100;50.994;4.538;2023-03-23T17:06:12;5.10;;;1.92;;
15990;SDS011;8100;50.994;4.538;2023-03-23T17:08:59;12.27;;;2.95;;
15990;SDS011;8100;50.994;4.538;2023-03-23T17:11:46;11.45;;;2.42;;
15990;SDS011;8100;50.994;4.538;2023-03-23T17:14:34;4.60;;;1.40;;
15990;SDS011;8100;50.994;4.538;2023-03-23T17:17:23;7.40;;;1.90;;
15990;SDS011;8100;50.994;4.538;2023-03-23T17:20:11;6.32;;;1.75;;
15990;SDS011;8100;50.994;4.538;2023-03-23T17:22:59;6.13;;;1.70;;
15990;SDS011;8100;50.994;4.538;2023-03-23T17:25:46;5.90;;;1.58;;
15990;SDS011;8100;50.994;4.538;2023-03-23T17:28:34;7.38;;;1.90;;
15990;SDS011;8100;50.994;4.538;2023-03-23T17:31:22;7.47;;;1.58;;
15990;SDS011;8100;50.994;4.538;2023-03-23T17:34:10;7.50;;;2.30;;
15990;SDS011;8100;50.994;4.538;2023-03-23T17:36:58;7.25;;;2.25;;